createdAt,value
2022-11-27T00:01:54.000Z,277.65
2022-11-27T00:03:21.000Z,277.65
2022-11-27T00:05:27.000Z,277.65
2022-11-27T00:06:54.000Z,277.71
2022-11-27T00:09:00.000Z,277.71
2022-11-27T00:10:26.000Z,277.71
2022-11-27T00:12:32.000Z,277.65
2022-11-27T00:13:59.000Z,277.65
2022-11-27T00:16:05.000Z,277.65
2022-11-27T00:17:32.000Z,277.71
2022-11-27T00:19:38.000Z,277.59
2022-11-27T00:22:29.000Z,277.46
2022-11-27T00:23:56.000Z,277.46
2022-11-27T00:26:02.000Z,277.4
2022-11-27T00:27:29.000Z,277.4
2022-11-27T00:29:35.000Z,277.34
2022-11-27T00:31:01.000Z,277.27
2022-11-27T00:33:07.000Z,277.21
2022-11-27T00:34:34.000Z,277.15
2022-11-27T00:36:40.000Z,277.09
2022-11-27T00:38:12.000Z,277.02
2022-11-27T00:40:18.000Z,276.96
2022-11-27T00:41:45.000Z,276.84
2022-11-27T00:43:51.000Z,276.71
2022-11-27T00:45:18.000Z,276.77
2022-11-27T00:47:24.000Z,276.71
2022-11-27T00:48:50.000Z,276.71
2022-11-27T00:50:56.000Z,276.65
2022-11-27T00:52:23.000Z,276.65
2022-11-27T00:54:29.000Z,276.59
2022-11-27T00:55:56.000Z,276.46
2022-11-27T00:58:02.000Z,276.34
2022-11-27T01:00:53.000Z,276.34
2022-11-27T01:02:19.000Z,276.4
2022-11-27T01:04:26.000Z,276.46
2022-11-27T01:05:52.000Z,276.4
2022-11-27T01:07:58.000Z,276.4
2022-11-27T01:09:25.000Z,276.34
2022-11-27T01:11:31.000Z,276.21
2022-11-27T01:12:57.000Z,276.21
2022-11-27T01:15:03.000Z,276.09
2022-11-27T01:16:30.000Z,276.02
2022-11-27T01:18:36.000Z,276.09
2022-11-27T01:20:03.000Z,276.09
2022-11-27T01:22:09.000Z,276.02
2022-11-27T01:23:35.000Z,276.02
2022-11-27T01:25:41.000Z,276.02
2022-11-27T01:27:08.000Z,276.02
2022-11-27T01:29:14.000Z,275.84
2022-11-27T01:30:41.000Z,275.77
2022-11-27T01:32:47.000Z,275.77
2022-11-27T01:34:13.000Z,275.77
2022-11-27T01:36:19.000Z,275.71
2022-11-27T01:39:10.000Z,275.84
2022-11-27T01:40:37.000Z,275.84
2022-11-27T01:42:43.000Z,275.84
2022-11-27T01:44:10.000Z,275.84
2022-11-27T01:46:16.000Z,275.9
2022-11-27T01:47:42.000Z,275.96
2022-11-27T01:49:48.000Z,275.96
2022-11-27T01:51:15.000Z,276.02
2022-11-27T01:53:21.000Z,276.02
2022-11-27T01:54:47.000Z,276.09
2022-11-27T01:56:54.000Z,276.15
2022-11-27T01:58:20.000Z,276.09
2022-11-27T02:00:26.000Z,276.15
2022-11-27T02:01:53.000Z,276.15
2022-11-27T02:03:59.000Z,276.27
2022-11-27T02:05:26.000Z,276.27
2022-11-27T02:07:32.000Z,276.34
2022-11-27T02:08:58.000Z,276.34
2022-11-27T02:11:04.000Z,276.34
2022-11-27T02:12:31.000Z,276.34
2022-11-27T02:14:37.000Z,276.34
2022-11-27T02:17:29.000Z,276.4
2022-11-27T02:18:55.000Z,276.4
2022-11-27T02:21:02.000Z,276.4
2022-11-27T02:22:28.000Z,276.46
2022-11-27T02:24:34.000Z,276.52
2022-11-27T02:26:01.000Z,276.52
2022-11-27T02:28:07.000Z,276.52
2022-11-27T02:29:33.000Z,276.52
2022-11-27T02:31:39.000Z,276.52
2022-11-27T02:33:06.000Z,276.59
2022-11-27T02:35:12.000Z,276.52
2022-11-27T02:36:39.000Z,276.59
2022-11-27T02:38:45.000Z,276.65
2022-11-27T02:40:11.000Z,276.65
2022-11-27T02:42:17.000Z,276.71
2022-11-27T02:43:44.000Z,276.77
2022-11-27T02:45:50.000Z,276.77
2022-11-27T02:47:16.000Z,276.77
2022-11-27T02:49:22.000Z,276.71
2022-11-27T02:50:49.000Z,276.71
2022-11-27T02:52:55.000Z,276.77
2022-11-27T02:55:46.000Z,276.77
2022-11-27T02:57:13.000Z,276.77
2022-11-27T02:59:19.000Z,276.77
2022-11-27T03:00:45.000Z,276.84
2022-11-27T03:02:51.000Z,276.84
2022-11-27T03:04:18.000Z,276.9
2022-11-27T03:06:24.000Z,276.84
2022-11-27T03:07:50.000Z,276.84
2022-11-27T03:09:57.000Z,276.84
2022-11-27T03:11:23.000Z,276.84
2022-11-27T03:13:29.000Z,276.84
2022-11-27T03:14:56.000Z,276.84
2022-11-27T03:17:02.000Z,276.9
2022-11-27T03:18:28.000Z,276.9
2022-11-27T03:20:34.000Z,276.9
2022-11-27T03:22:01.000Z,276.9
2022-11-27T03:24:07.000Z,276.84
2022-11-27T03:25:34.000Z,276.84
2022-11-27T03:27:40.000Z,276.84
2022-11-27T03:29:06.000Z,276.9
2022-11-27T03:31:12.000Z,276.9
2022-11-27T03:34:04.000Z,276.9
2022-11-27T03:35:30.000Z,276.9
2022-11-27T03:37:36.000Z,276.96
2022-11-27T03:39:03.000Z,277.02
2022-11-27T03:41:09.000Z,277.02
2022-11-27T03:42:35.000Z,276.96
2022-11-27T03:44:42.000Z,276.96
2022-11-27T03:46:08.000Z,276.96
2022-11-27T03:48:14.000Z,276.96
2022-11-27T03:49:41.000Z,276.96
2022-11-27T03:51:47.000Z,276.96
2022-11-27T03:53:13.000Z,276.96
2022-11-27T03:55:20.000Z,276.96
2022-11-27T03:56:46.000Z,276.96
2022-11-27T03:58:52.000Z,276.96
2022-11-27T04:00:19.000Z,277.02
2022-11-27T04:02:25.000Z,277.02
2022-11-27T04:03:51.000Z,277.02
2022-11-27T04:05:58.000Z,277.02
2022-11-27T04:07:24.000Z,276.96
2022-11-27T04:09:30.000Z,276.96
2022-11-27T04:12:21.000Z,276.96
2022-11-27T04:13:48.000Z,276.96
2022-11-27T04:15:54.000Z,276.96
2022-11-27T04:17:21.000Z,277.02
2022-11-27T04:19:27.000Z,276.96
2022-11-27T04:20:53.000Z,277.02
2022-11-27T04:22:59.000Z,277.02
2022-11-27T04:24:26.000Z,277.02
2022-11-27T04:26:32.000Z,276.96
2022-11-27T04:27:58.000Z,277.02
2022-11-27T04:30:04.000Z,277.02
2022-11-27T04:31:31.000Z,276.96
2022-11-27T04:33:37.000Z,277.02
2022-11-27T04:35:04.000Z,277.02
2022-11-27T04:37:10.000Z,277.02
2022-11-27T04:38:36.000Z,277.09
2022-11-27T04:40:42.000Z,277.02
2022-11-27T04:42:09.000Z,277.09
2022-11-27T04:44:15.000Z,277.02
2022-11-27T04:45:42.000Z,277.02
2022-11-27T04:47:48.000Z,277.02
2022-11-27T04:50:39.000Z,277.02
2022-11-27T04:52:05.000Z,277.02
2022-11-27T04:54:11.000Z,277.02
2022-11-27T04:55:38.000Z,277.02
2022-11-27T04:57:44.000Z,276.96
2022-11-27T04:59:10.000Z,277.02
2022-11-27T05:01:17.000Z,276.96
2022-11-27T05:02:43.000Z,276.96
2022-11-27T05:04:50.000Z,276.96
2022-11-27T05:06:16.000Z,276.96
2022-11-27T05:08:22.000Z,276.96
2022-11-27T05:09:49.000Z,276.96
2022-11-27T05:11:55.000Z,276.96
2022-11-27T05:13:21.000Z,276.96
2022-11-27T05:15:27.000Z,276.96
2022-11-27T05:16:54.000Z,276.96
2022-11-27T05:19:00.000Z,276.96
2022-11-27T05:20:26.000Z,276.96
2022-11-27T05:22:33.000Z,276.96
2022-11-27T05:23:59.000Z,276.96
2022-11-27T05:26:05.000Z,276.9
2022-11-27T05:28:56.000Z,276.9
2022-11-27T05:30:23.000Z,276.9
2022-11-27T05:32:29.000Z,276.9
2022-11-27T05:33:55.000Z,276.96
2022-11-27T05:36:01.000Z,276.9
2022-11-27T05:37:28.000Z,276.9
2022-11-27T05:39:34.000Z,276.9
2022-11-27T05:41:01.000Z,276.9
2022-11-27T05:43:07.000Z,276.9
2022-11-27T05:44:33.000Z,276.9
2022-11-27T05:46:39.000Z,276.9
2022-11-27T05:48:06.000Z,276.9
2022-11-27T05:50:12.000Z,276.9
2022-11-27T05:51:38.000Z,276.9
2022-11-27T05:53:44.000Z,276.9
2022-11-27T05:55:11.000Z,276.9
2022-11-27T05:57:17.000Z,276.9
2022-11-27T05:58:43.000Z,276.9
2022-11-27T06:00:50.000Z,276.9
2022-11-27T06:02:16.000Z,276.9
2022-11-27T06:04:30.000Z,276.84
2022-11-27T06:07:21.000Z,276.84
2022-11-27T06:08:48.000Z,276.84
2022-11-27T06:10:54.000Z,276.84
2022-11-27T06:12:21.000Z,276.84
2022-11-27T06:14:27.000Z,276.84
2022-11-27T06:15:53.000Z,276.84
2022-11-27T06:17:59.000Z,276.77
2022-11-27T06:19:26.000Z,276.84
2022-11-27T06:21:32.000Z,276.84
2022-11-27T06:22:58.000Z,276.84
2022-11-27T06:25:04.000Z,276.77
2022-11-27T06:26:31.000Z,276.84
2022-11-27T06:28:37.000Z,276.84
2022-11-27T06:30:04.000Z,276.84
2022-11-27T06:32:10.000Z,276.77
2022-11-27T06:33:36.000Z,276.77
2022-11-27T06:35:43.000Z,276.77
2022-11-27T06:37:09.000Z,276.77
2022-11-27T06:39:17.000Z,276.77
2022-11-27T06:40:44.000Z,276.84
2022-11-27T06:42:50.000Z,276.77
2022-11-27T06:45:41.000Z,276.77
2022-11-27T06:47:08.000Z,276.77
2022-11-27T06:49:14.000Z,276.77
2022-11-27T06:50:40.000Z,276.77
2022-11-27T06:52:47.000Z,276.71
2022-11-27T06:54:13.000Z,276.77
2022-11-27T06:56:19.000Z,276.71
2022-11-27T06:57:46.000Z,276.71
2022-11-27T06:59:52.000Z,276.71
2022-11-27T07:01:18.000Z,276.77
2022-11-27T07:03:25.000Z,276.71
2022-11-27T07:04:51.000Z,276.71
2022-11-27T07:06:57.000Z,276.71
2022-11-27T07:08:24.000Z,276.71
2022-11-27T07:10:30.000Z,276.71
2022-11-27T07:11:56.000Z,276.71
2022-11-27T07:14:02.000Z,276.65
2022-11-27T07:15:29.000Z,276.65
2022-11-27T07:17:35.000Z,276.71
2022-11-27T07:19:02.000Z,276.65
2022-11-27T07:21:08.000Z,276.65
2022-11-27T07:23:59.000Z,276.65
2022-11-27T07:25:26.000Z,276.65
2022-11-27T07:27:32.000Z,276.65
2022-11-27T07:28:58.000Z,276.65
2022-11-27T07:31:05.000Z,276.65
2022-11-27T07:32:31.000Z,276.65
2022-11-27T07:34:37.000Z,276.65
2022-11-27T07:36:05.000Z,276.65
2022-11-27T07:38:11.000Z,276.65
2022-11-27T07:39:37.000Z,276.71
2022-11-27T07:42:06.000Z,276.65
2022-11-27T07:44:02.000Z,276.71
2022-11-27T07:46:08.000Z,276.71
2022-11-27T07:47:35.000Z,276.71
2022-11-27T07:49:41.000Z,276.65
2022-11-27T07:51:07.000Z,276.71
2022-11-27T07:53:14.000Z,276.71
2022-11-27T07:54:40.000Z,276.71
2022-11-27T07:56:47.000Z,276.77
2022-11-27T07:58:13.000Z,276.77
2022-11-27T08:00:19.000Z,276.77
2022-11-27T08:03:11.000Z,276.77
2022-11-27T08:04:37.000Z,276.77
2022-11-27T08:06:44.000Z,276.77
2022-11-27T08:08:10.000Z,276.77
2022-11-27T08:10:16.000Z,276.84
2022-11-27T08:11:43.000Z,276.84
2022-11-27T08:13:49.000Z,276.84
2022-11-27T08:15:15.000Z,276.9
2022-11-27T08:17:22.000Z,276.9
2022-11-27T08:18:48.000Z,276.96
2022-11-27T08:20:54.000Z,276.96
2022-11-27T08:22:21.000Z,276.96
2022-11-27T08:24:27.000Z,277.02
2022-11-27T08:25:53.000Z,277.02
2022-11-27T08:27:59.000Z,277.02
2022-11-27T08:29:26.000Z,277.02
2022-11-27T08:31:37.000Z,277.09
2022-11-27T08:33:04.000Z,277.09
2022-11-27T08:35:10.000Z,277.09
2022-11-27T08:36:37.000Z,277.09
2022-11-27T08:38:43.000Z,277.09
2022-11-27T08:41:34.000Z,277.09
2022-11-27T08:43:01.000Z,277.21
2022-11-27T08:45:07.000Z,277.15
2022-11-27T08:46:33.000Z,277.21
2022-11-27T08:48:39.000Z,277.15
2022-11-27T08:50:06.000Z,277.21
2022-11-27T08:52:12.000Z,277.27
2022-11-27T08:53:39.000Z,277.27
2022-11-27T08:55:45.000Z,277.21
2022-11-27T08:57:11.000Z,277.21
2022-11-27T08:59:17.000Z,277.21
2022-11-27T09:00:44.000Z,277.21
2022-11-27T09:02:50.000Z,277.21
2022-11-27T09:04:16.000Z,277.15
2022-11-27T09:06:23.000Z,277.15
2022-11-27T09:07:49.000Z,277.15
2022-11-27T09:09:55.000Z,277.21
2022-11-27T09:11:22.000Z,277.21
2022-11-27T09:13:28.000Z,277.21
2022-11-27T09:14:54.000Z,277.27
2022-11-27T09:17:01.000Z,277.27
2022-11-27T09:19:52.000Z,277.27
2022-11-27T09:21:18.000Z,277.27
2022-11-27T09:23:24.000Z,277.27
2022-11-27T09:24:51.000Z,277.34
2022-11-27T09:26:57.000Z,277.34
2022-11-27T09:28:23.000Z,277.34
2022-11-27T09:30:35.000Z,277.4
2022-11-27T09:32:02.000Z,277.46
2022-11-27T09:34:08.000Z,277.46
2022-11-27T09:35:35.000Z,277.52
2022-11-27T09:37:41.000Z,277.65
2022-11-27T09:39:07.000Z,277.71
2022-11-27T09:41:13.000Z,277.77
2022-11-27T09:42:40.000Z,277.77
2022-11-27T09:44:46.000Z,277.77
2022-11-27T09:46:13.000Z,277.71
2022-11-27T09:48:19.000Z,277.77
2022-11-27T09:49:46.000Z,277.77
2022-11-27T09:51:52.000Z,277.84
2022-11-27T09:53:18.000Z,277.9
2022-11-27T09:55:24.000Z,277.96
2022-11-27T09:58:15.000Z,277.96
2022-11-27T09:59:42.000Z,278.02
2022-11-27T10:01:48.000Z,278.09
2022-11-27T10:03:15.000Z,278.15
2022-11-27T10:05:22.000Z,278.15
2022-11-27T10:06:48.000Z,278.21
2022-11-27T10:08:54.000Z,278.15
2022-11-27T10:10:21.000Z,278.15
2022-11-27T10:12:27.000Z,278.15
2022-11-27T10:13:53.000Z,278.21
2022-11-27T10:15:59.000Z,278.21
2022-11-27T10:17:26.000Z,278.27
2022-11-27T10:19:32.000Z,278.4
2022-11-27T10:20:59.000Z,278.34
2022-11-27T10:23:05.000Z,278.4
2022-11-27T10:24:31.000Z,278.34
2022-11-27T10:26:37.000Z,278.34
2022-11-27T10:28:04.000Z,278.4
2022-11-27T10:30:10.000Z,278.4
2022-11-27T10:31:37.000Z,278.46
2022-11-27T10:33:43.000Z,278.46
2022-11-27T10:36:34.000Z,278.52
2022-11-27T10:38:01.000Z,278.59
2022-11-27T10:40:11.000Z,278.59
2022-11-27T10:41:37.000Z,278.59
2022-11-27T10:43:54.000Z,278.59
2022-11-27T10:45:20.000Z,278.59
2022-11-27T10:47:26.000Z,278.59
2022-11-27T10:48:58.000Z,278.59
2022-11-27T10:51:04.000Z,278.52
2022-11-27T10:52:30.000Z,278.52
2022-11-27T10:54:36.000Z,278.52
2022-11-27T10:56:04.000Z,278.52
2022-11-27T10:58:10.000Z,278.46
2022-11-27T10:59:36.000Z,278.52
2022-11-27T11:01:42.000Z,278.52
2022-11-27T11:03:09.000Z,278.52
2022-11-27T11:05:15.000Z,278.52
2022-11-27T11:07:09.000Z,278.52
2022-11-27T11:09:15.000Z,278.59
2022-11-27T11:10:42.000Z,278.59
2022-11-27T11:12:48.000Z,278.59
2022-11-27T11:15:39.000Z,278.59
2022-11-27T11:17:06.000Z,278.59
2022-11-27T11:19:12.000Z,278.59
2022-11-27T11:20:39.000Z,278.65
2022-11-27T11:22:45.000Z,278.65
2022-11-27T11:24:11.000Z,278.65
2022-11-27T11:26:17.000Z,278.71
2022-11-27T11:27:44.000Z,278.77
2022-11-27T11:29:50.000Z,278.77
2022-11-27T11:31:17.000Z,278.77
2022-11-27T11:33:23.000Z,278.84
2022-11-27T11:34:49.000Z,278.84
2022-11-27T11:37:01.000Z,278.84
2022-11-27T11:38:28.000Z,278.9
2022-11-27T11:40:34.000Z,278.84
2022-11-27T11:42:00.000Z,278.84
2022-11-27T11:44:06.000Z,278.9
2022-11-27T11:45:33.000Z,278.96
2022-11-27T11:47:39.000Z,278.96
2022-11-27T11:49:06.000Z,278.96
2022-11-27T11:51:12.000Z,278.96
2022-11-27T11:54:03.000Z,278.96
2022-11-27T11:55:30.000Z,279.02
2022-11-27T11:57:36.000Z,278.96
2022-11-27T11:59:02.000Z,279.02
2022-11-27T12:01:09.000Z,279.02
2022-11-27T12:02:51.000Z,279.02
2022-11-27T12:04:57.000Z,279.02
2022-11-27T12:06:24.000Z,279.02
2022-11-27T12:08:30.000Z,279.02
2022-11-27T12:09:56.000Z,279.02
2022-11-27T12:12:03.000Z,279.02
2022-11-27T12:13:29.000Z,278.96
2022-11-27T12:15:37.000Z,279.02
2022-11-27T12:17:03.000Z,279.02
2022-11-27T12:19:10.000Z,279.02
2022-11-27T12:20:36.000Z,279.02
2022-11-27T12:22:42.000Z,278.96
2022-11-27T12:24:09.000Z,278.96
2022-11-27T12:26:15.000Z,278.96
2022-11-27T12:27:41.000Z,278.96
2022-11-27T12:29:47.000Z,278.9
2022-11-27T12:32:39.000Z,278.9
2022-11-27T12:34:05.000Z,278.9
2022-11-27T12:36:11.000Z,278.9
2022-11-27T12:37:38.000Z,278.84
2022-11-27T12:39:44.000Z,278.84
2022-11-27T12:41:10.000Z,278.84
2022-11-27T12:43:16.000Z,278.84
2022-11-27T12:44:43.000Z,278.84
2022-11-27T12:46:49.000Z,278.84
2022-11-27T12:48:15.000Z,278.84
2022-11-27T12:50:21.000Z,278.84
2022-11-27T12:51:48.000Z,278.84
2022-11-27T12:53:54.000Z,278.84
2022-11-27T12:55:21.000Z,278.84
2022-11-27T12:57:27.000Z,278.9
2022-11-27T12:58:53.000Z,278.9
2022-11-27T13:00:59.000Z,278.9
2022-11-27T13:02:26.000Z,278.9
2022-11-27T13:04:32.000Z,278.9
2022-11-27T13:05:59.000Z,278.9
2022-11-27T13:08:05.000Z,278.9
2022-11-27T13:10:56.000Z,278.9
2022-11-27T13:12:23.000Z,278.9
2022-11-27T13:14:29.000Z,278.96
2022-11-27T13:15:55.000Z,278.96
2022-11-27T13:18:01.000Z,278.9
2022-11-27T13:19:28.000Z,278.9
2022-11-27T13:21:34.000Z,278.9
2022-11-27T13:23:01.000Z,278.9
2022-11-27T13:25:07.000Z,278.9
2022-11-27T13:26:33.000Z,278.9
2022-11-27T13:28:39.000Z,278.9
2022-11-27T13:30:06.000Z,278.9
2022-11-27T13:32:12.000Z,278.9
2022-11-27T13:33:38.000Z,278.9
2022-11-27T13:35:45.000Z,278.9
2022-11-27T13:37:11.000Z,278.96
2022-11-27T13:39:17.000Z,278.96
2022-11-27T13:40:44.000Z,278.96
2022-11-27T13:42:50.000Z,278.96
2022-11-27T13:44:16.000Z,278.96
2022-11-27T13:46:22.000Z,278.9
2022-11-27T13:49:14.000Z,278.96
2022-11-27T13:50:40.000Z,278.96
2022-11-27T13:52:46.000Z,278.96
2022-11-27T13:54:13.000Z,278.96
2022-11-27T13:56:19.000Z,278.96
2022-11-27T13:57:45.000Z,278.96
2022-11-27T13:59:52.000Z,278.96
2022-11-27T14:01:18.000Z,278.9
2022-11-27T14:03:24.000Z,278.84
2022-11-27T14:04:51.000Z,278.84
2022-11-27T14:07:00.000Z,278.84
2022-11-27T14:08:27.000Z,278.84
2022-11-27T14:10:33.000Z,278.77
2022-11-27T14:12:00.000Z,278.77
2022-11-27T14:14:06.000Z,278.77
2022-11-27T14:15:32.000Z,278.77
2022-11-27T14:17:38.000Z,278.77
2022-11-27T14:19:05.000Z,278.71
2022-11-27T14:21:11.000Z,278.71
2022-11-27T14:22:38.000Z,278.71
2022-11-27T14:25:14.000Z,278.65
2022-11-27T14:28:05.000Z,278.59
2022-11-27T14:29:31.000Z,278.59
2022-11-27T14:31:38.000Z,278.52
2022-11-27T14:33:04.000Z,278.52
2022-11-27T14:35:10.000Z,278.46
2022-11-27T14:36:37.000Z,278.46
2022-11-27T14:38:43.000Z,278.4
2022-11-27T14:40:09.000Z,278.34
2022-11-27T14:42:16.000Z,278.27
2022-11-27T14:43:42.000Z,278.27
2022-11-27T14:45:48.000Z,278.21
2022-11-27T14:47:15.000Z,278.21
2022-11-27T14:49:21.000Z,278.15
2022-11-27T14:50:47.000Z,278.15
2022-11-27T14:52:53.000Z,278.15
2022-11-27T14:54:20.000Z,278.15
2022-11-27T14:56:26.000Z,278.15
2022-11-27T14:57:52.000Z,278.09
2022-11-27T14:59:59.000Z,278.09
2022-11-27T15:01:25.000Z,278.09
2022-11-27T15:03:31.000Z,278.02
2022-11-27T15:06:22.000Z,278.02
2022-11-27T15:07:49.000Z,278.02
2022-11-27T15:09:55.000Z,278.02
2022-11-27T15:11:21.000Z,277.96
2022-11-27T15:13:59.000Z,277.96
2022-11-27T15:15:26.000Z,277.96
2022-11-27T15:17:32.000Z,277.9
2022-11-27T15:18:58.000Z,277.9
2022-11-27T15:21:04.000Z,277.9
2022-11-27T15:22:31.000Z,277.9
2022-11-27T15:24:37.000Z,277.84
2022-11-27T15:26:03.000Z,277.9
2022-11-27T15:28:18.000Z,277.84
2022-11-27T15:29:44.000Z,277.84
2022-11-27T15:31:50.000Z,277.77
2022-11-27T15:33:17.000Z,277.77
2022-11-27T15:35:23.000Z,277.77
2022-11-27T15:36:49.000Z,277.77
2022-11-27T15:38:56.000Z,277.71
2022-11-27T15:40:22.000Z,277.71
2022-11-27T15:42:28.000Z,277.71
2022-11-27T15:45:19.000Z,277.71
2022-11-27T15:46:46.000Z,277.71
2022-11-27T15:48:52.000Z,277.65
2022-11-27T15:50:19.000Z,277.65
2022-11-27T15:52:25.000Z,277.65
2022-11-27T15:53:51.000Z,277.65
2022-11-27T15:55:57.000Z,277.65
2022-11-27T15:57:24.000Z,277.65
2022-11-27T15:59:30.000Z,277.59
2022-11-27T16:00:57.000Z,277.59
2022-11-27T16:03:03.000Z,277.59
2022-11-27T16:04:29.000Z,277.59
2022-11-27T16:06:35.000Z,277.59
2022-11-27T16:08:02.000Z,277.59
2022-11-27T16:10:08.000Z,277.52
2022-11-27T16:11:35.000Z,277.52
2022-11-27T16:13:41.000Z,277.52
2022-11-27T16:15:07.000Z,277.52
2022-11-27T16:17:13.000Z,277.46
2022-11-27T16:18:40.000Z,277.46
2022-11-27T16:20:46.000Z,277.52
2022-11-27T16:23:37.000Z,277.46
2022-11-27T16:25:04.000Z,277.52
2022-11-27T16:27:10.000Z,277.46
2022-11-27T16:28:36.000Z,277.46
2022-11-27T16:30:43.000Z,277.46
2022-11-27T16:32:09.000Z,277.46
2022-11-27T16:34:15.000Z,277.46
2022-11-27T16:35:42.000Z,277.46
2022-11-27T16:37:48.000Z,277.46
2022-11-27T16:39:14.000Z,277.46
2022-11-27T16:41:20.000Z,277.4
2022-11-27T16:42:47.000Z,277.4
2022-11-27T16:44:53.000Z,277.4
2022-11-27T16:46:20.000Z,277.4
2022-11-27T16:48:26.000Z,277.4
2022-11-27T16:49:53.000Z,277.34
2022-11-27T16:51:59.000Z,277.34
2022-11-27T16:53:25.000Z,277.34
2022-11-27T16:55:31.000Z,277.34
2022-11-27T16:56:58.000Z,277.34
2022-11-27T16:59:04.000Z,277.34
2022-11-27T17:01:55.000Z,277.34
2022-11-27T17:03:21.000Z,277.34
2022-11-27T17:05:27.000Z,277.34
2022-11-27T17:06:54.000Z,277.34
2022-11-27T17:09:00.000Z,277.27
2022-11-27T17:10:27.000Z,277.27
2022-11-27T17:12:33.000Z,277.27
2022-11-27T17:13:59.000Z,277.27
2022-11-27T17:16:05.000Z,277.27
2022-11-27T17:17:32.000Z,277.27
2022-11-27T17:19:44.000Z,277.27
2022-11-27T17:21:10.000Z,277.27
2022-11-27T17:23:16.000Z,277.27
2022-11-27T17:24:43.000Z,277.21
2022-11-27T17:26:49.000Z,277.27
2022-11-27T17:28:15.000Z,277.21
2022-11-27T17:30:22.000Z,277.21
2022-11-27T17:31:48.000Z,277.21
2022-11-27T17:33:54.000Z,277.21
2022-11-27T17:35:21.000Z,277.21
2022-11-27T17:37:27.000Z,277.21
2022-11-27T17:40:18.000Z,277.21
2022-11-27T17:41:45.000Z,277.21
2022-11-27T17:43:51.000Z,277.15
2022-11-27T17:45:17.000Z,277.15
2022-11-27T17:47:23.000Z,277.15
2022-11-27T17:48:50.000Z,277.15
2022-11-27T17:50:56.000Z,277.09
2022-11-27T17:52:23.000Z,277.09
2022-11-27T17:54:29.000Z,277.09
2022-11-27T17:55:55.000Z,277.09
2022-11-27T17:58:01.000Z,277.09
2022-11-27T17:59:28.000Z,277.15
2022-11-27T18:01:34.000Z,277.09
2022-11-27T18:03:01.000Z,277.09
2022-11-27T18:05:11.000Z,277.09
2022-11-27T18:06:38.000Z,277.09
2022-11-27T18:08:44.000Z,277.09
2022-11-27T18:10:10.000Z,277.09
2022-11-27T18:12:16.000Z,277.02
2022-11-27T18:13:43.000Z,277.02
2022-11-27T18:15:49.000Z,277.02
2022-11-27T18:18:40.000Z,276.96
2022-11-27T18:20:07.000Z,277.02
2022-11-27T18:22:13.000Z,277.02
2022-11-27T18:23:39.000Z,277.02
2022-11-27T18:26:25.000Z,277.02
2022-11-27T18:28:17.000Z,277.02
2022-11-27T18:30:23.000Z,277.02
2022-11-27T18:31:49.000Z,276.96
2022-11-27T18:33:55.000Z,277.02
2022-11-27T18:35:22.000Z,277.02
2022-11-27T18:37:28.000Z,277.02
2022-11-27T18:38:55.000Z,276.96
2022-11-27T18:41:01.000Z,276.96
2022-11-27T18:42:27.000Z,276.96
2022-11-27T18:44:33.000Z,276.96
2022-11-27T18:46:08.000Z,276.96
2022-11-27T18:48:15.000Z,276.96
2022-11-27T18:49:41.000Z,276.96
2022-11-27T18:51:48.000Z,276.96
2022-11-27T18:53:14.000Z,276.96
2022-11-27T18:55:20.000Z,276.96
2022-11-27T18:58:12.000Z,276.96
2022-11-27T18:59:38.000Z,276.96
2022-11-27T19:01:45.000Z,276.96
2022-11-27T19:03:11.000Z,276.96
2022-11-27T19:05:18.000Z,276.96
2022-11-27T19:06:44.000Z,276.96
2022-11-27T19:08:50.000Z,276.96
2022-11-27T19:10:17.000Z,276.96
2022-11-27T19:12:23.000Z,276.96
2022-11-27T19:13:49.000Z,276.96
2022-11-27T19:15:55.000Z,276.96
2022-11-27T19:17:22.000Z,276.96
2022-11-27T19:21:08.000Z,276.9
2022-11-27T19:21:42.000Z,276.9
2022-11-27T19:23:09.000Z,276.9
2022-11-27T19:25:15.000Z,276.96
2022-11-27T19:26:41.000Z,276.96
2022-11-27T19:28:47.000Z,276.9
2022-11-27T19:30:14.000Z,276.96
2022-11-27T19:32:20.000Z,276.9
2022-11-27T19:33:46.000Z,276.96
2022-11-27T19:35:52.000Z,276.9
2022-11-27T19:38:38.000Z,276.9
2022-11-27T19:40:04.000Z,276.96
2022-11-27T19:42:10.000Z,276.9
2022-11-27T19:43:37.000Z,276.9
2022-11-27T19:45:43.000Z,276.96
2022-11-27T19:47:09.000Z,276.9
2022-11-27T19:49:15.000Z,276.9
2022-11-27T19:50:42.000Z,276.9
2022-11-27T19:52:48.000Z,276.9
2022-11-27T19:54:15.000Z,276.9
2022-11-27T19:56:21.000Z,276.96
2022-11-27T19:57:47.000Z,276.9
2022-11-27T19:59:53.000Z,276.9
2022-11-27T20:01:20.000Z,276.96
2022-11-27T20:03:26.000Z,276.9
2022-11-27T20:04:53.000Z,276.9
2022-11-27T20:06:59.000Z,276.9
2022-11-27T20:08:26.000Z,276.9
2022-11-27T20:10:32.000Z,276.9
2022-11-27T20:11:58.000Z,276.9
2022-11-27T20:14:04.000Z,276.84
2022-11-27T20:16:55.000Z,276.9
2022-11-27T20:18:22.000Z,276.9
2022-11-27T20:20:28.000Z,276.9
2022-11-27T20:21:58.000Z,276.9
2022-11-27T20:24:04.000Z,276.9
2022-11-27T20:25:31.000Z,276.9
2022-11-27T20:27:37.000Z,276.9
2022-11-27T20:29:03.000Z,276.9
2022-11-27T20:31:10.000Z,276.84
2022-11-27T20:32:36.000Z,276.9
2022-11-27T20:34:42.000Z,276.84
2022-11-27T20:36:09.000Z,276.9
2022-11-27T20:38:15.000Z,276.9
2022-11-27T20:39:41.000Z,276.9
2022-11-27T20:41:48.000Z,276.9
2022-11-27T20:43:14.000Z,276.9
2022-11-27T20:45:20.000Z,276.9
2022-11-27T20:46:47.000Z,276.9
2022-11-27T20:48:53.000Z,276.9
2022-11-27T20:50:19.000Z,276.9
2022-11-27T20:52:25.000Z,276.9
2022-11-27T20:55:17.000Z,276.9
2022-11-27T20:56:43.000Z,276.9
2022-11-27T20:58:49.000Z,276.9
2022-11-27T21:00:16.000Z,276.9
2022-11-27T21:02:22.000Z,276.9
2022-11-27T21:03:48.000Z,276.9
2022-11-27T21:05:54.000Z,276.9
2022-11-27T21:07:21.000Z,276.9
2022-11-27T21:09:27.000Z,276.9
2022-11-27T21:10:54.000Z,276.9
2022-11-27T21:13:00.000Z,276.9
2022-11-27T21:14:26.000Z,276.9
2022-11-27T21:16:32.000Z,276.9
2022-11-27T21:17:59.000Z,276.96
2022-11-27T21:20:05.000Z,276.9
2022-11-27T21:21:32.000Z,276.9
2022-11-27T21:23:38.000Z,276.9
2022-11-27T21:25:04.000Z,276.96
2022-11-27T21:27:10.000Z,276.9
2022-11-27T21:28:37.000Z,276.9
2022-11-27T21:30:43.000Z,276.96
2022-11-27T21:33:34.000Z,276.9
2022-11-27T21:35:01.000Z,276.96
2022-11-27T21:37:07.000Z,276.96
2022-11-27T21:38:33.000Z,276.96
2022-11-27T21:40:39.000Z,276.96
2022-11-27T21:42:06.000Z,276.96
2022-11-27T21:44:12.000Z,276.96
2022-11-27T21:45:39.000Z,276.9
2022-11-27T21:47:45.000Z,276.9
2022-11-27T21:49:11.000Z,276.9
2022-11-27T21:51:17.000Z,276.9
2022-11-27T21:52:44.000Z,276.9
2022-11-27T21:54:50.000Z,276.96
2022-11-27T21:56:16.000Z,276.9
2022-11-27T21:58:23.000Z,276.9
2022-11-27T21:59:49.000Z,276.96
2022-11-27T22:01:55.000Z,276.9
2022-11-27T22:03:22.000Z,276.96
2022-11-27T22:05:28.000Z,276.9
2022-11-27T22:06:55.000Z,276.9
2022-11-27T22:09:01.000Z,276.96
2022-11-27T22:11:52.000Z,276.96
2022-11-27T22:13:18.000Z,276.96
2022-11-27T22:15:25.000Z,276.96
2022-11-27T22:16:51.000Z,276.96
2022-11-27T22:18:57.000Z,276.9
2022-11-27T22:20:24.000Z,276.96
2022-11-27T22:22:30.000Z,276.9
2022-11-27T22:23:56.000Z,276.96
2022-11-27T22:26:03.000Z,276.9
2022-11-27T22:27:29.000Z,276.96
2022-11-27T22:29:35.000Z,276.9
2022-11-27T22:31:02.000Z,276.96
2022-11-27T22:33:08.000Z,276.96
2022-11-27T22:34:34.000Z,276.96
2022-11-27T22:36:40.000Z,276.96
2022-11-27T22:38:07.000Z,276.96
2022-11-27T22:40:13.000Z,276.9
2022-11-27T22:41:39.000Z,276.9
2022-11-27T22:43:46.000Z,276.96
2022-11-27T22:45:12.000Z,276.96
2022-11-27T22:47:18.000Z,276.96
2022-11-27T22:50:10.000Z,276.96
2022-11-27T22:51:36.000Z,276.9
2022-11-27T22:53:42.000Z,276.9
2022-11-27T22:55:09.000Z,276.9
2022-11-27T22:57:15.000Z,276.9
2022-11-27T22:58:41.000Z,276.9
2022-11-27T23:00:47.000Z,276.9